sensor_id;sensor_type;location;lat;lon;timestamp;temperature;humidity
35445;DHT22;21562;49.476;6.086;2023-03-14T00:01:36;10.60;99.90
35445;DHT22;21562;49.476;6.086;2023-03-14T00:04:04;10.60;99.90
35445;DHT22;21562;49.476;6.086;2023-03-14T00:06:30;10.60;99.90
35445;DHT22;21562;49.476;6.086;2023-03-14T00:08:57;10.70;99.90
35445;DHT22;21562;49.476;6.086;2023-03-14T00:11:22;10.60;99.90
35445;DHT22;21562;49.476;6.086;2023-03-14T00:13:52;10.70;99.90
35445;DHT22;21562;49.476;6.086;2023-03-14T00:16:18;10.60;99.90
35445;DHT22;21562;49.476;6.086;2023-03-14T00:18:44;10.70;99.90
35445;DHT22;21562;49.476;6.086;2023-03-14T00:21:10;10.70;99.90
35445;DHT22;21562;49.476;6.086;2023-03-14T00:23:38;10.80;99.90
35445;DHT22;21562;49.476;6.086;2023-03-14T00:26:07;10.70;99.90
35445;DHT22;21562;49.476;6.086;2023-03-14T00:28:32;10.80;99.90
35445;DHT22;21562;49.476;6.086;2023-03-14T00:30:58;10.90;99.90
35445;DHT22;21562;49.476;6.086;2023-03-14T00:33:24;10.90;99.90
35445;DHT22;21562;49.476;6.086;2023-03-14T00:36:01;10.80;99.90
35445;DHT22;21562;49.476;6.086;2023-03-14T00:38:27;11.00;99.90
35445;DHT22;21562;49.476;6.086;2023-03-14T00:40:53;11.10;99.90
35445;DHT22;21562;49.476;6.086;2023-03-14T00:43:20;11.10;99.90
35445;DHT22;21562;49.476;6.086;2023-03-14T00:45:48;11.20;99.90
35445;DHT22;21562;49.476;6.086;2023-03-14T00:48:13;11.20;99.90
35445;DHT22;21562;49.476;6.086;2023-03-14T00:50:39;11.10;99.90
35445;DHT22;21562;49.476;6.086;2023-03-14T00:53:05;11.00;99.90
35445;DHT22;21562;49.476;6.086;2023-03-14T00:55:30;11.00;99.90
35445;DHT22;21562;49.476;6.086;2023-03-14T00:57:56;10.90;99.90
35445;DHT22;21562;49.476;6.086;2023-03-14T01:00:22;11.10;99.90
35445;DHT22;21562;49.476;6.086;2023-03-14T01:02:48;10.90;99.90
35445;DHT22;21562;49.476;6.086;2023-03-14T01:05:14;11.10;99.90
35445;DHT22;21562;49.476;6.086;2023-03-14T01:07:40;11.10;99.90
35445;DHT22;21562;49.476;6.086;2023-03-14T01:10:06;11.00;99.90
35445;DHT22;21562;49.476;6.086;2023-03-14T01:12:32;10.90;99.90
35445;DHT22;21562;49.476;6.086;2023-03-14T01:14:57;10.90;99.90
35445;DHT22;21562;49.476;6.086;2023-03-14T01:17:23;11.00;99.90
35445;DHT22;21562;49.476;6.086;2023-03-14T01:19:49;10.90;99.90
35445;DHT22;21562;49.476;6.086;2023-03-14T01:22:14;10.70;99.90
35445;DHT22;21562;49.476;6.086;2023-03-14T01:24:40;10.60;99.90
35445;DHT22;21562;49.476;6.086;2023-03-14T01:27:05;10.70;99.90
35445;DHT22;21562;49.476;6.086;2023-03-14T01:29:31;10.60;99.90
35445;DHT22;21562;49.476;6.086;2023-03-14T01:31:57;10.60;99.90
35445;DHT22;21562;49.476;6.086;2023-03-14T01:34:22;10.70;99.90
35445;DHT22;21562;49.476;6.086;2023-03-14T01:36:48;10.70;99.90
35445;DHT22;21562;49.476;6.086;2023-03-14T01:39:14;10.50;99.90
35445;DHT22;21562;49.476;6.086;2023-03-14T01:41:40;10.30;99.90
35445;DHT22;21562;49.476;6.086;2023-03-14T01:44:08;10.20;99.90
35445;DHT22;21562;49.476;6.086;2023-03-14T01:49:24;10.10;99.90
35445;DHT22;21562;49.476;6.086;2023-03-14T01:52:07;10.30;99.90
35445;DHT22;21562;49.476;6.086;2023-03-14T01:54:41;10.50;99.90
35445;DHT22;21562;49.476;6.086;2023-03-14T01:57:16;10.30;99.90
35445;DHT22;21562;49.476;6.086;2023-03-14T01:59:47;10.20;99.90
35445;DHT22;21562;49.476;6.086;2023-03-14T02:02:16;10.20;99.90
35445;DHT22;21562;49.476;6.086;2023-03-14T02:04:42;10.10;99.90
35445;DHT22;21562;49.476;6.086;2023-03-14T02:07:30;10.10;99.90
35445;DHT22;21562;49.476;6.086;2023-03-14T02:09:58;10.10;99.90
35445;DHT22;21562;49.476;6.086;2023-03-14T02:12:24;10.10;99.90
35445;DHT22;21562;49.476;6.086;2023-03-14T02:14:51;10.10;99.90
35445;DHT22;21562;49.476;6.086;2023-03-14T02:17:18;9.90;99.90
35445;DHT22;21562;49.476;6.086;2023-03-14T02:22:19;9.80;99.90
35445;DHT22;21562;49.476;6.086;2023-03-14T02:27:41;9.90;99.90
35445;DHT22;21562;49.476;6.086;2023-03-14T02:30:17;10.00;99.90
35445;DHT22;21562;49.476;6.086;2023-03-14T02:32:47;10.10;99.90
35445;DHT22;21562;49.476;6.086;2023-03-14T02:35:17;10.10;99.90
35445;DHT22;21562;49.476;6.086;2023-03-14T02:37:53;10.00;99.90
35445;DHT22;21562;49.476;6.086;2023-03-14T02:40:21;9.90;99.90
35445;DHT22;21562;49.476;6.086;2023-03-14T02:42:46;9.90;99.90
35445;DHT22;21562;49.476;6.086;2023-03-14T02:47:58;9.80;99.90
35445;DHT22;21562;49.476;6.086;2023-03-14T02:50:27;9.90;99.90
35445;DHT22;21562;49.476;6.086;2023-03-14T02:52:55;9.90;99.90
35445;DHT22;21562;49.476;6.086;2023-03-14T02:55:21;10.00;99.90
35445;DHT22;21562;49.476;6.086;2023-03-14T02:57:47;9.80;99.90
35445;DHT22;21562;49.476;6.086;2023-03-14T03:00:13;9.70;99.90
35445;DHT22;21562;49.476;6.086;2023-03-14T03:02:38;9.70;99.90
35445;DHT22;21562;49.476;6.086;2023-03-14T03:05:04;9.60;99.90
35445;DHT22;21562;49.476;6.086;2023-03-14T03:07:30;9.60;99.90
35445;DHT22;21562;49.476;6.086;2023-03-14T03:09:56;9.60;99.90
35445;DHT22;21562;49.476;6.086;2023-03-14T03:12:21;9.70;99.90
35445;DHT22;21562;49.476;6.086;2023-03-14T03:14:47;9.60;99.90
35445;DHT22;21562;49.476;6.086;2023-03-14T03:17:13;9.60;99.90
35445;DHT22;21562;49.476;6.086;2023-03-14T03:19:38;9.50;99.90
35445;DHT22;21562;49.476;6.086;2023-03-14T03:22:04;9.50;99.90
35445;DHT22;21562;49.476;6.086;2023-03-14T03:24:30;9.50;99.90
35445;DHT22;21562;49.476;6.086;2023-03-14T03:26:55;9.60;99.90
35445;DHT22;21562;49.476;6.086;2023-03-14T03:29:21;9.40;99.90
35445;DHT22;21562;49.476;6.086;2023-03-14T03:31:47;9.40;99.90
35445;DHT22;21562;49.476;6.086;2023-03-14T03:34:13;9.50;99.90
35445;DHT22;21562;49.476;6.086;2023-03-14T03:36:39;9.50;99.90
35445;DHT22;21562;49.476;6.086;2023-03-14T03:39:05;9.40;99.90
35445;DHT22;21562;49.476;6.086;2023-03-14T03:41:31;9.30;99.90
35445;DHT22;21562;49.476;6.086;2023-03-14T03:43:57;9.40;99.90
35445;DHT22;21562;49.476;6.086;2023-03-14T03:46:23;9.30;99.90
35445;DHT22;21562;49.476;6.086;2023-03-14T03:48:58;9.30;99.90
35445;DHT22;21562;49.476;6.086;2023-03-14T03:51:23;9.40;99.90
35445;DHT22;21562;49.476;6.086;2023-03-14T03:53:49;9.40;99.90
35445;DHT22;21562;49.476;6.086;2023-03-14T03:56:15;9.40;99.90
35445;DHT22;21562;49.476;6.086;2023-03-14T03:58:41;9.50;99.90
35445;DHT22;21562;49.476;6.086;2023-03-14T04:01:08;9.40;99.90
35445;DHT22;21562;49.476;6.086;2023-03-14T04:03:34;9.40;99.90
35445;DHT22;21562;49.476;6.086;2023-03-14T04:06:01;9.50;99.90
35445;DHT22;21562;49.476;6.086;2023-03-14T04:08:27;9.50;99.90
35445;DHT22;21562;49.476;6.086;2023-03-14T04:10:57;9.50;99.90
35445;DHT22;21562;49.476;6.086;2023-03-14T04:13:23;9.60;99.90
35445;DHT22;21562;49.476;6.086;2023-03-14T04:15:49;9.60;99.90
35445;DHT22;21562;49.476;6.086;2023-03-14T04:18:15;9.70;99.90
35445;DHT22;21562;49.476;6.086;2023-03-14T04:20:40;9.60;99.90
35445;DHT22;21562;49.476;6.086;2023-03-14T04:23:06;9.50;99.90
35445;DHT22;21562;49.476;6.086;2023-03-14T04:25:31;9.60;99.90
35445;DHT22;21562;49.476;6.086;2023-03-14T04:27:57;9.80;99.90
35445;DHT22;21562;49.476;6.086;2023-03-14T04:30:23;9.70;99.90
35445;DHT22;21562;49.476;6.086;2023-03-14T04:32:48;9.60;99.90
35445;DHT22;21562;49.476;6.086;2023-03-14T04:35:14;9.70;99.90
35445;DHT22;21562;49.476;6.086;2023-03-14T04:37:40;9.70;99.90
35445;DHT22;21562;49.476;6.086;2023-03-14T04:40:07;9.60;99.90
35445;DHT22;21562;49.476;6.086;2023-03-14T04:42:34;9.50;99.90
35445;DHT22;21562;49.476;6.086;2023-03-14T04:44:59;9.60;99.90
35445;DHT22;21562;49.476;6.086;2023-03-14T04:47:26;9.70;99.90
35445;DHT22;21562;49.476;6.086;2023-03-14T04:49:51;9.60;99.90
35445;DHT22;21562;49.476;6.086;2023-03-14T04:52:17;9.70;99.90
35445;DHT22;21562;49.476;6.086;2023-03-14T04:54:42;9.80;99.90
35445;DHT22;21562;49.476;6.086;2023-03-14T04:57:08;9.60;99.90
35445;DHT22;21562;49.476;6.086;2023-03-14T04:59:34;9.60;99.90
35445;DHT22;21562;49.476;6.086;2023-03-14T05:01:59;9.50;99.90
35445;DHT22;21562;49.476;6.086;2023-03-14T05:04:25;9.40;99.90
35445;DHT22;21562;49.476;6.086;2023-03-14T05:06:50;9.60;99.90
35445;DHT22;21562;49.476;6.086;2023-03-14T05:09:16;9.80;99.90
35445;DHT22;21562;49.476;6.086;2023-03-14T05:11:42;9.90;99.90
35445;DHT22;21562;49.476;6.086;2023-03-14T05:14:07;9.90;99.90
35445;DHT22;21562;49.476;6.086;2023-03-14T05:16:33;9.70;99.90
35445;DHT22;21562;49.476;6.086;2023-03-14T05:18:58;9.60;99.90
35445;DHT22;21562;49.476;6.086;2023-03-14T05:21:25;9.50;99.90
35445;DHT22;21562;49.476;6.086;2023-03-14T05:23:50;9.50;99.90
35445;DHT22;21562;49.476;6.086;2023-03-14T05:26:16;9.40;99.90
35445;DHT22;21562;49.476;6.086;2023-03-14T05:28:42;9.40;99.90
35445;DHT22;21562;49.476;6.086;2023-03-14T05:31:08;9.30;99.90
35445;DHT22;21562;49.476;6.086;2023-03-14T05:33:34;9.30;99.90
35445;DHT22;21562;49.476;6.086;2023-03-14T05:36:00;9.30;99.90
35445;DHT22;21562;49.476;6.086;2023-03-14T05:38:25;9.40;99.90
35445;DHT22;21562;49.476;6.086;2023-03-14T05:40:51;9.40;99.90
35445;DHT22;21562;49.476;6.086;2023-03-14T05:43:16;9.60;99.90
35445;DHT22;21562;49.476;6.086;2023-03-14T05:45:42;9.80;99.90
35445;DHT22;21562;49.476;6.086;2023-03-14T05:48:09;9.50;99.90
35445;DHT22;21562;49.476;6.086;2023-03-14T05:50:34;9.50;99.90
35445;DHT22;21562;49.476;6.086;2023-03-14T05:53:00;9.40;99.90
35445;DHT22;21562;49.476;6.086;2023-03-14T05:55:26;9.40;99.90
35445;DHT22;21562;49.476;6.086;2023-03-14T05:57:53;9.30;99.90
35445;DHT22;21562;49.476;6.086;2023-03-14T06:00:19;9.50;99.90
35445;DHT22;21562;49.476;6.086;2023-03-14T06:02:45;9.40;99.90
35445;DHT22;21562;49.476;6.086;2023-03-14T06:05:10;9.40;99.90
35445;DHT22;21562;49.476;6.086;2023-03-14T06:07:36;9.40;99.90
35445;DHT22;21562;49.476;6.086;2023-03-14T06:10:02;9.30;99.90
35445;DHT22;21562;49.476;6.086;2023-03-14T06:12:28;9.30;99.90
35445;DHT22;21562;49.476;6.086;2023-03-14T06:14:53;9.40;99.90
35445;DHT22;21562;49.476;6.086;2023-03-14T06:17:19;9.50;99.90
35445;DHT22;21562;49.476;6.086;2023-03-14T06:19:45;9.40;99.90
35445;DHT22;21562;49.476;6.086;2023-03-14T06:22:10;9.40;99.90
35445;DHT22;21562;49.476;6.086;2023-03-14T06:24:36;9.70;99.90
35445;DHT22;21562;49.476;6.086;2023-03-14T06:27:02;9.60;99.90
35445;DHT22;21562;49.476;6.086;2023-03-14T06:29:28;9.60;99.90
35445;DHT22;21562;49.476;6.086;2023-03-14T06:31:54;9.60;99.90
35445;DHT22;21562;49.476;6.086;2023-03-14T06:34:20;9.60;99.90
35445;DHT22;21562;49.476;6.086;2023-03-14T06:36:45;9.50;99.90
35445;DHT22;21562;49.476;6.086;2023-03-14T06:39:11;9.50;99.90
35445;DHT22;21562;49.476;6.086;2023-03-14T06:41:36;9.40;99.90
35445;DHT22;21562;49.476;6.086;2023-03-14T06:44:02;9.40;99.90
35445;DHT22;21562;49.476;6.086;2023-03-14T06:46:28;9.30;99.90
35445;DHT22;21562;49.476;6.086;2023-03-14T06:48:54;9.50;99.90
35445;DHT22;21562;49.476;6.086;2023-03-14T06:51:19;9.50;99.90
35445;DHT22;21562;49.476;6.086;2023-03-14T06:53:45;9.40;99.90
35445;DHT22;21562;49.476;6.086;2023-03-14T06:56:10;9.50;99.90
35445;DHT22;21562;49.476;6.086;2023-03-14T06:58:36;9.70;99.90
35445;DHT22;21562;49.476;6.086;2023-03-14T07:01:02;9.90;99.90
35445;DHT22;21562;49.476;6.086;2023-03-14T07:03:28;9.90;99.90
35445;DHT22;21562;49.476;6.086;2023-03-14T07:05:53;9.90;99.90
35445;DHT22;21562;49.476;6.086;2023-03-14T07:08:19;9.90;99.90
35445;DHT22;21562;49.476;6.086;2023-03-14T07:10:44;9.90;99.90
35445;DHT22;21562;49.476;6.086;2023-03-14T07:13:10;9.90;99.90
35445;DHT22;21562;49.476;6.086;2023-03-14T07:15:36;9.80;99.90
35445;DHT22;21562;49.476;6.086;2023-03-14T07:18:01;9.80;99.90
35445;DHT22;21562;49.476;6.086;2023-03-14T07:20:27;9.90;99.90
35445;DHT22;21562;49.476;6.086;2023-03-14T07:22:54;9.90;99.90
35445;DHT22;21562;49.476;6.086;2023-03-14T07:25:19;9.70;99.90
35445;DHT22;21562;49.476;6.086;2023-03-14T07:27:46;9.70;99.90
35445;DHT22;21562;49.476;6.086;2023-03-14T07:30:13;9.80;99.90
35445;DHT22;21562;49.476;6.086;2023-03-14T07:32:39;9.70;99.90
35445;DHT22;21562;49.476;6.086;2023-03-14T07:35:05;9.70;99.90
35445;DHT22;21562;49.476;6.086;2023-03-14T07:37:31;9.80;99.90
35445;DHT22;21562;49.476;6.086;2023-03-14T07:39:57;9.80;99.90
35445;DHT22;21562;49.476;6.086;2023-03-14T07:42:22;9.80;99.90
35445;DHT22;21562;49.476;6.086;2023-03-14T07:44:48;9.80;99.90
35445;DHT22;21562;49.476;6.086;2023-03-14T07:47:14;10.10;99.90
35445;DHT22;21562;49.476;6.086;2023-03-14T07:49:39;9.90;99.90
35445;DHT22;21562;49.476;6.086;2023-03-14T07:52:05;10.10;99.90
35445;DHT22;21562;49.476;6.086;2023-03-14T07:54:30;10.00;99.90
35445;DHT22;21562;49.476;6.086;2023-03-14T07:56:56;10.00;99.90
35445;DHT22;21562;49.476;6.086;2023-03-14T07:59:24;10.00;99.90
35445;DHT22;21562;49.476;6.086;2023-03-14T08:01:49;10.10;99.90
35445;DHT22;21562;49.476;6.086;2023-03-14T08:04:15;10.20;99.90
35445;DHT22;21562;49.476;6.086;2023-03-14T08:06:41;10.40;99.90
35445;DHT22;21562;49.476;6.086;2023-03-14T08:09:06;10.30;99.90
35445;DHT22;21562;49.476;6.086;2023-03-14T08:11:32;10.10;99.90
35445;DHT22;21562;49.476;6.086;2023-03-14T08:13:57;10.10;99.90
35445;DHT22;21562;49.476;6.086;2023-03-14T08:16:23;10.20;99.90
35445;DHT22;21562;49.476;6.086;2023-03-14T08:18:48;10.30;99.90
35445;DHT22;21562;49.476;6.086;2023-03-14T08:21:14;10.60;99.90
35445;DHT22;21562;49.476;6.086;2023-03-14T08:23:40;10.30;99.90
35445;DHT22;21562;49.476;6.086;2023-03-14T08:26:06;10.30;99.90
35445;DHT22;21562;49.476;6.086;2023-03-14T08:28:32;10.30;99.90
35445;DHT22;21562;49.476;6.086;2023-03-14T08:30:59;10.30;99.90
35445;DHT22;21562;49.476;6.086;2023-03-14T08:33:26;10.00;99.90
35445;DHT22;21562;49.476;6.086;2023-03-14T08:35:54;10.00;99.90
35445;DHT22;21562;49.476;6.086;2023-03-14T08:38:19;10.10;99.90
35445;DHT22;21562;49.476;6.086;2023-03-14T08:40:45;10.20;99.90
35445;DHT22;21562;49.476;6.086;2023-03-14T08:43:11;10.10;99.90
35445;DHT22;21562;49.476;6.086;2023-03-14T08:45:36;10.00;99.90
35445;DHT22;21562;49.476;6.086;2023-03-14T08:48:02;9.90;99.90
35445;DHT22;21562;49.476;6.086;2023-03-14T08:50:28;10.00;99.90
35445;DHT22;21562;49.476;6.086;2023-03-14T08:52:54;9.90;99.90
35445;DHT22;21562;49.476;6.086;2023-03-14T08:55:19;9.70;99.90
35445;DHT22;21562;49.476;6.086;2023-03-14T08:57:46;9.50;99.90
35445;DHT22;21562;49.476;6.086;2023-03-14T09:00:12;9.40;99.90
35445;DHT22;21562;49.476;6.086;2023-03-14T09:02:41;9.30;99.90
35445;DHT22;21562;49.476;6.086;2023-03-14T09:05:09;9.10;99.90
35445;DHT22;21562;49.476;6.086;2023-03-14T09:07:36;9.00;99.90
35445;DHT22;21562;49.476;6.086;2023-03-14T09:10:01;9.00;99.90
35445;DHT22;21562;49.476;6.086;2023-03-14T09:12:27;9.00;99.90
35445;DHT22;21562;49.476;6.086;2023-03-14T09:14:53;8.80;99.90
35445;DHT22;21562;49.476;6.086;2023-03-14T09:17:18;8.80;99.90
35445;DHT22;21562;49.476;6.086;2023-03-14T09:19:44;8.80;99.90
35445;DHT22;21562;49.476;6.086;2023-03-14T09:22:10;8.50;99.90
35445;DHT22;21562;49.476;6.086;2023-03-14T09:24:35;8.40;99.90
35445;DHT22;21562;49.476;6.086;2023-03-14T09:27:01;8.50;99.90
35445;DHT22;21562;49.476;6.086;2023-03-14T09:29:27;8.50;99.90
35445;DHT22;21562;49.476;6.086;2023-03-14T09:31:53;8.50;99.90
35445;DHT22;21562;49.476;6.086;2023-03-14T09:34:18;8.50;99.90
35445;DHT22;21562;49.476;6.086;2023-03-14T09:36:44;8.40;99.90
35445;DHT22;21562;49.476;6.086;2023-03-14T09:39:11;8.20;99.90
35445;DHT22;21562;49.476;6.086;2023-03-14T09:41:42;8.20;99.90
35445;DHT22;21562;49.476;6.086;2023-03-14T09:46:44;8.10;99.90
35445;DHT22;21562;49.476;6.086;2023-03-14T09:49:16;7.90;99.90
35445;DHT22;21562;49.476;6.086;2023-03-14T09:51:45;7.80;99.90
35445;DHT22;21562;49.476;6.086;2023-03-14T09:54:34;7.70;99.90
35445;DHT22;21562;49.476;6.086;2023-03-14T09:57:00;7.40;99.90
35445;DHT22;21562;49.476;6.086;2023-03-14T09:59:28;7.40;99.90
35445;DHT22;21562;49.476;6.086;2023-03-14T10:01:58;7.40;99.90
35445;DHT22;21562;49.476;6.086;2023-03-14T10:04:25;7.30;99.90
35445;DHT22;21562;49.476;6.086;2023-03-14T10:06:52;7.30;99.90
35445;DHT22;21562;49.476;6.086;2023-03-14T10:09:22;7.40;99.90
35445;DHT22;21562;49.476;6.086;2023-03-14T10:11:55;7.50;99.90
35445;DHT22;21562;49.476;6.086;2023-03-14T10:14:36;7.70;99.90
35445;DHT22;21562;49.476;6.086;2023-03-14T10:17:10;7.80;99.90
35445;DHT22;21562;49.476;6.086;2023-03-14T10:19:37;8.20;99.90
35445;DHT22;21562;49.476;6.086;2023-03-14T10:22:04;8.10;99.90
35445;DHT22;21562;49.476;6.086;2023-03-14T10:24:32;8.10;99.90
35445;DHT22;21562;49.476;6.086;2023-03-14T10:27:02;8.20;99.90
35445;DHT22;21562;49.476;6.086;2023-03-14T10:29:32;8.40;99.90
35445;DHT22;21562;49.476;6.086;2023-03-14T10:32:06;8.40;99.90
35445;DHT22;21562;49.476;6.086;2023-03-14T10:34:37;8.50;99.90
35445;DHT22;21562;49.476;6.086;2023-03-14T10:37:22;8.50;99.90
35445;DHT22;21562;49.476;6.086;2023-03-14T10:39:53;8.60;99.90
35445;DHT22;21562;49.476;6.086;2023-03-14T10:42:24;8.70;99.90
35445;DHT22;21562;49.476;6.086;2023-03-14T10:44:56;8.50;99.90
35445;DHT22;21562;49.476;6.086;2023-03-14T10:47:24;8.30;99.90
35445;DHT22;21562;49.476;6.086;2023-03-14T10:49:51;8.40;99.90
35445;DHT22;21562;49.476;6.086;2023-03-14T10:52:26;8.50;99.90
35445;DHT22;21562;49.476;6.086;2023-03-14T10:54:59;8.60;99.90
35445;DHT22;21562;49.476;6.086;2023-03-14T10:57:26;8.80;99.90
35445;DHT22;21562;49.476;6.086;2023-03-14T10:59:53;8.90;99.90
35445;DHT22;21562;49.476;6.086;2023-03-14T11:05:15;8.70;99.90
35445;DHT22;21562;49.476;6.086;2023-03-14T11:07:45;8.50;99.90
35445;DHT22;21562;49.476;6.086;2023-03-14T11:10:34;8.70;99.90
35445;DHT22;21562;49.476;6.086;2023-03-14T11:23:12;8.80;99.90
35445;DHT22;21562;49.476;6.086;2023-03-14T11:28:38;8.80;99.90
35445;DHT22;21562;49.476;6.086;2023-03-14T11:31:16;8.60;99.90
35445;DHT22;21562;49.476;6.086;2023-03-14T11:37:20;8.40;99.90
35445;DHT22;21562;49.476;6.086;2023-03-14T11:39:20;8.60;99.90
35445;DHT22;21562;49.476;6.086;2023-03-14T11:41:48;8.80;99.90
35445;DHT22;21562;49.476;6.086;2023-03-14T11:44:25;9.00;99.90
35445;DHT22;21562;49.476;6.086;2023-03-14T11:47:02;9.00;99.90
35445;DHT22;21562;49.476;6.086;2023-03-14T11:52:35;8.50;99.90
35445;DHT22;21562;49.476;6.086;2023-03-14T11:55:17;8.40;99.90
35445;DHT22;21562;49.476;6.086;2023-03-14T11:57:45;8.60;99.90
35445;DHT22;21562;49.476;6.086;2023-03-14T12:00:18;8.80;99.90
35445;DHT22;21562;49.476;6.086;2023-03-14T12:10:52;9.10;99.90
35445;DHT22;21562;49.476;6.086;2023-03-14T12:13:19;9.00;99.90
35445;DHT22;21562;49.476;6.086;2023-03-14T12:15:57;9.00;99.90
35445;DHT22;21562;49.476;6.086;2023-03-14T12:18:35;8.70;99.90
35445;DHT22;21562;49.476;6.086;2023-03-14T12:21:06;8.50;99.90
35445;DHT22;21562;49.476;6.086;2023-03-14T12:23:41;8.60;99.90
35445;DHT22;21562;49.476;6.086;2023-03-14T12:34:24;8.60;99.90
35445;DHT22;21562;49.476;6.086;2023-03-14T12:44:41;8.90;99.90
35445;DHT22;21562;49.476;6.086;2023-03-14T12:49:48;8.80;99.90
35445;DHT22;21562;49.476;6.086;2023-03-14T12:52:21;9.00;99.90
35445;DHT22;21562;49.476;6.086;2023-03-14T12:54:49;9.20;99.90
35445;DHT22;21562;49.476;6.086;2023-03-14T13:00:11;9.00;99.90
35445;DHT22;21562;49.476;6.086;2023-03-14T13:02:42;9.00;99.90
35445;DHT22;21562;49.476;6.086;2023-03-14T13:05:18;8.90;99.90
35445;DHT22;21562;49.476;6.086;2023-03-14T13:15:18;8.70;99.90
35445;DHT22;21562;49.476;6.086;2023-03-14T13:17:46;8.70;99.90
35445;DHT22;21562;49.476;6.086;2023-03-14T13:20:28;8.80;99.90
35445;DHT22;21562;49.476;6.086;2023-03-14T13:22:54;8.90;99.90
35445;DHT22;21562;49.476;6.086;2023-03-14T13:25:20;9.00;99.90
35445;DHT22;21562;49.476;6.086;2023-03-14T13:27:48;9.40;99.90
35445;DHT22;21562;49.476;6.086;2023-03-14T13:30:22;9.50;99.90
35445;DHT22;21562;49.476;6.086;2023-03-14T13:32:50;9.70;99.90
35445;DHT22;21562;49.476;6.086;2023-03-14T13:35:27;9.90;99.90
35445;DHT22;21562;49.476;6.086;2023-03-14T13:37:59;9.80;99.90
35445;DHT22;21562;49.476;6.086;2023-03-14T13:40:29;9.80;99.90
35445;DHT22;21562;49.476;6.086;2023-03-14T13:43:11;9.70;99.90
35445;DHT22;21562;49.476;6.086;2023-03-14T13:45:44;9.80;99.90
35445;DHT22;21562;49.476;6.086;2023-03-14T13:48:11;9.80;99.90
35445;DHT22;21562;49.476;6.086;2023-03-14T13:50:37;9.70;99.90
35445;DHT22;21562;49.476;6.086;2023-03-14T13:53:03;9.70;99.90
35445;DHT22;21562;49.476;6.086;2023-03-14T13:55:29;9.70;99.90
35445;DHT22;21562;49.476;6.086;2023-03-14T13:57:55;9.60;99.90
35445;DHT22;21562;49.476;6.086;2023-03-14T14:00:23;9.50;99.90
35445;DHT22;21562;49.476;6.086;2023-03-14T14:02:56;9.40;99.90
35445;DHT22;21562;49.476;6.086;2023-03-14T14:05:25;9.60;99.90
35445;DHT22;21562;49.476;6.086;2023-03-14T14:07:51;9.60;99.90
35445;DHT22;21562;49.476;6.086;2023-03-14T14:10:17;9.70;99.90
35445;DHT22;21562;49.476;6.086;2023-03-14T14:12:47;9.50;99.90
35445;DHT22;21562;49.476;6.086;2023-03-14T14:15:21;9.30;99.90
35445;DHT22;21562;49.476;6.086;2023-03-14T14:17:51;9.20;99.90
35445;DHT22;21562;49.476;6.086;2023-03-14T14:22:50;9.60;99.90
35445;DHT22;21562;49.476;6.086;2023-03-14T14:25:16;9.70;99.90
35445;DHT22;21562;49.476;6.086;2023-03-14T14:27:46;9.80;99.90
35445;DHT22;21562;49.476;6.086;2023-03-14T14:32:49;9.20;99.90
35445;DHT22;21562;49.476;6.086;2023-03-14T14:35:30;9.30;99.90
35445;DHT22;21562;49.476;6.086;2023-03-14T14:37:55;9.30;99.90
35445;DHT22;21562;49.476;6.086;2023-03-14T14:40:26;9.70;99.90
35445;DHT22;21562;49.476;6.086;2023-03-14T14:42:52;10.40;99.90
35445;DHT22;21562;49.476;6.086;2023-03-14T14:45:23;10.70;99.90
35445;DHT22;21562;49.476;6.086;2023-03-14T14:48:22;10.80;99.90
35445;DHT22;21562;49.476;6.086;2023-03-14T14:51:05;10.70;99.90
35445;DHT22;21562;49.476;6.086;2023-03-14T14:53:41;10.80;99.90
35445;DHT22;21562;49.476;6.086;2023-03-14T14:56:16;10.90;99.90
35445;DHT22;21562;49.476;6.086;2023-03-14T14:58:45;11.20;99.90
35445;DHT22;21562;49.476;6.086;2023-03-14T15:01:22;10.90;99.90
35445;DHT22;21562;49.476;6.086;2023-03-14T15:03:53;10.70;99.90
35445;DHT22;21562;49.476;6.086;2023-03-14T15:06:19;10.70;99.90
35445;DHT22;21562;49.476;6.086;2023-03-14T15:08:48;10.40;99.90
35445;DHT22;21562;49.476;6.086;2023-03-14T15:11:25;10.40;99.90
35445;DHT22;21562;49.476;6.086;2023-03-14T15:13:51;10.40;99.90
35445;DHT22;21562;49.476;6.086;2023-03-14T15:16:20;10.20;99.90
35445;DHT22;21562;49.476;6.086;2023-03-14T15:18:52;10.40;99.90
35445;DHT22;21562;49.476;6.086;2023-03-14T15:21:18;10.50;99.90
35445;DHT22;21562;49.476;6.086;2023-03-14T15:23:44;10.40;99.90
35445;DHT22;21562;49.476;6.086;2023-03-14T15:26:18;10.30;99.90
35445;DHT22;21562;49.476;6.086;2023-03-14T15:28:44;10.30;99.90
35445;DHT22;21562;49.476;6.086;2023-03-14T15:31:11;10.30;99.90
35445;DHT22;21562;49.476;6.086;2023-03-14T15:33:37;10.50;99.90
35445;DHT22;21562;49.476;6.086;2023-03-14T15:36:33;10.70;99.90
35445;DHT22;21562;49.476;6.086;2023-03-14T15:38:59;10.50;99.90
35445;DHT22;21562;49.476;6.086;2023-03-14T15:41:26;10.30;99.90
35445;DHT22;21562;49.476;6.086;2023-03-14T15:43:52;10.30;99.90
35445;DHT22;21562;49.476;6.086;2023-03-14T15:46:18;10.10;99.90
35445;DHT22;21562;49.476;6.086;2023-03-14T15:48:44;9.90;99.90
35445;DHT22;21562;49.476;6.086;2023-03-14T15:51:10;9.90;99.90
35445;DHT22;21562;49.476;6.086;2023-03-14T15:53:37;9.80;99.90
35445;DHT22;21562;49.476;6.086;2023-03-14T15:56:04;9.60;99.90
35445;DHT22;21562;49.476;6.086;2023-03-14T15:58:30;9.30;99.90
35445;DHT22;21562;49.476;6.086;2023-03-14T16:01:00;8.90;99.90
35445;DHT22;21562;49.476;6.086;2023-03-14T16:03:27;8.60;99.90
35445;DHT22;21562;49.476;6.086;2023-03-14T16:05:53;8.00;99.90
35445;DHT22;21562;49.476;6.086;2023-03-14T16:08:19;7.70;99.90
35445;DHT22;21562;49.476;6.086;2023-03-14T16:10:45;7.90;99.90
35445;DHT22;21562;49.476;6.086;2023-03-14T16:13:12;8.40;99.90
35445;DHT22;21562;49.476;6.086;2023-03-14T16:15:37;9.10;99.90
35445;DHT22;21562;49.476;6.086;2023-03-14T16:18:03;9.50;99.90
35445;DHT22;21562;49.476;6.086;2023-03-14T16:20:29;10.10;99.90
35445;DHT22;21562;49.476;6.086;2023-03-14T16:22:55;10.10;99.90
35445;DHT22;21562;49.476;6.086;2023-03-14T16:25:21;10.30;99.90
35445;DHT22;21562;49.476;6.086;2023-03-14T16:27:46;10.00;99.90
35445;DHT22;21562;49.476;6.086;2023-03-14T16:30:13;10.10;99.90
35445;DHT22;21562;49.476;6.086;2023-03-14T16:32:38;9.40;99.90
35445;DHT22;21562;49.476;6.086;2023-03-14T16:35:05;9.10;99.90
35445;DHT22;21562;49.476;6.086;2023-03-14T16:37:31;8.50;99.90
35445;DHT22;21562;49.476;6.086;2023-03-14T16:39:56;8.00;99.90
35445;DHT22;21562;49.476;6.086;2023-03-14T16:42:22;8.10;99.90
35445;DHT22;21562;49.476;6.086;2023-03-14T16:44:48;8.10;99.90
35445;DHT22;21562;49.476;6.086;2023-03-14T16:47:14;8.60;99.90
35445;DHT22;21562;49.476;6.086;2023-03-14T16:49:39;8.70;99.90
35445;DHT22;21562;49.476;6.086;2023-03-14T16:52:05;8.10;99.90
35445;DHT22;21562;49.476;6.086;2023-03-14T16:54:32;7.80;99.90
35445;DHT22;21562;49.476;6.086;2023-03-14T16:56:58;7.60;99.90
35445;DHT22;21562;49.476;6.086;2023-03-14T16:59:23;7.60;99.90
35445;DHT22;21562;49.476;6.086;2023-03-14T17:01:51;7.50;99.90
35445;DHT22;21562;49.476;6.086;2023-03-14T17:04:16;7.40;99.90